sensor_id;sensor_type;location;lat;lon;timestamp;P1;durP1;ratioP1;P2;durP2;ratioP2
22916;SDS011;11624;53.250;7.456;2022-10-17T00:01:07;17.67;;;6.45;;
22916;SDS011;11624;53.250;7.456;2022-10-17T00:03:36;20.55;;;6.78;;
22916;SDS011;11624;53.250;7.456;2022-10-17T00:06:05;15.88;;;6.38;;
22916;SDS011;11624;53.250;7.456;2022-10-17T00:08:34;17.65;;;5.88;;
22916;SDS011;11624;53.250;7.456;2022-10-17T00:11:04;20.08;;;6.20;;
22916;SDS011;11624;53.250;7.456;2022-10-17T00:13:33;16.38;;;5.47;;
22916;SDS011;11624;53.250;7.456;2022-10-17T00:16:03;19.83;;;6.15;;
22916;SDS011;11624;53.250;7.456;2022-10-17T00:18:32;18.40;;;6.00;;
22916;SDS011;11624;53.250;7.456;2022-10-17T00:21:00;20.25;;;6.50;;
22916;SDS011;11624;53.250;7.456;2022-10-17T00:23:28;21.10;;;6.53;;
22916;SDS011;11624;53.250;7.456;2022-10-17T00:25:57;19.23;;;6.15;;
22916;SDS011;11624;53.250;7.456;2022-10-17T00:28:26;21.85;;;5.90;;
22916;SDS011;11624;53.250;7.456;2022-10-17T00:30:55;20.50;;;5.90;;
22916;SDS011;11624;53.250;7.456;2022-10-17T00:33:25;18.13;;;5.60;;
22916;SDS011;11624;53.250;7.456;2022-10-17T00:36:01;19.23;;;5.85;;
22916;SDS011;11624;53.250;7.456;2022-10-17T00:38:30;17.67;;;5.40;;
22916;SDS011;11624;53.250;7.456;2022-10-17T00:40:59;19.25;;;5.90;;
22916;SDS011;11624;53.250;7.456;2022-10-17T00:43:27;20.10;;;6.00;;
22916;SDS011;11624;53.250;7.456;2022-10-17T00:45:56;18.02;;;5.95;;
22916;SDS011;11624;53.250;7.456;2022-10-17T00:48:25;18.20;;;5.72;;
22916;SDS011;11624;53.250;7.456;2022-10-17T00:50:53;15.18;;;5.30;;
22916;SDS011;11624;53.250;7.456;2022-10-17T00:53:21;15.50;;;5.45;;
22916;SDS011;11624;53.250;7.456;2022-10-17T00:55:50;15.20;;;5.20;;
22916;SDS011;11624;53.250;7.456;2022-10-17T00:58:20;17.38;;;5.20;;
22916;SDS011;11624;53.250;7.456;2022-10-17T01:00:48;14.05;;;4.68;;
22916;SDS011;11624;53.250;7.456;2022-10-17T01:03:16;16.75;;;4.45;;
22916;SDS011;11624;53.250;7.456;2022-10-17T01:05:45;19.13;;;4.47;;
22916;SDS011;11624;53.250;7.456;2022-10-17T01:08:14;18.48;;;4.38;;
22916;SDS011;11624;53.250;7.456;2022-10-17T01:10:44;15.88;;;4.43;;
22916;SDS011;11624;53.250;7.456;2022-10-17T01:13:21;15.57;;;4.22;;
22916;SDS011;11624;53.250;7.456;2022-10-17T01:15:55;14.43;;;4.80;;
22916;SDS011;11624;53.250;7.456;2022-10-17T01:18:43;14.93;;;4.30;;
22916;SDS011;11624;53.250;7.456;2022-10-17T01:24:32;17.33;;;4.65;;
22916;SDS011;11624;53.250;7.456;2022-10-17T01:33:31;19.45;;;4.78;;
22916;SDS011;11624;53.250;7.456;2022-10-17T01:36:07;19.08;;;4.88;;
22916;SDS011;11624;53.250;7.456;2022-10-17T01:38:42;18.70;;;4.93;;
22916;SDS011;11624;53.250;7.456;2022-10-17T01:41:14;14.63;;;4.72;;
22916;SDS011;11624;53.250;7.456;2022-10-17T01:43:50;17.70;;;5.05;;
22916;SDS011;11624;53.250;7.456;2022-10-17T01:46:25;21.83;;;5.20;;
22916;SDS011;11624;53.250;7.456;2022-10-17T01:48:56;19.23;;;4.97;;
22916;SDS011;11624;53.250;7.456;2022-10-17T01:51:29;15.07;;;4.88;;
22916;SDS011;11624;53.250;7.456;2022-10-17T01:54:04;17.83;;;5.03;;
22916;SDS011;11624;53.250;7.456;2022-10-17T01:56:38;19.77;;;5.32;;
22916;SDS011;11624;53.250;7.456;2022-10-17T01:59:08;15.50;;;5.35;;
22916;SDS011;11624;53.250;7.456;2022-10-17T02:01:41;14.57;;;5.15;;
22916;SDS011;11624;53.250;7.456;2022-10-17T02:04:11;17.27;;;5.43;;
22916;SDS011;11624;53.250;7.456;2022-10-17T02:06:41;21.00;;;5.03;;
22916;SDS011;11624;53.250;7.456;2022-10-17T02:09:16;13.80;;;4.95;;
22916;SDS011;11624;53.250;7.456;2022-10-17T02:11:49;13.18;;;5.55;;
22916;SDS011;11624;53.250;7.456;2022-10-17T02:14:28;19.30;;;5.40;;
22916;SDS011;11624;53.250;7.456;2022-10-17T02:17:09;14.60;;;5.20;;
22916;SDS011;11624;53.250;7.456;2022-10-17T02:19:49;18.17;;;5.82;;
22916;SDS011;11624;53.250;7.456;2022-10-17T02:22:29;15.50;;;5.13;;
22916;SDS011;11624;53.250;7.456;2022-10-17T02:25:08;17.27;;;5.47;;
22916;SDS011;11624;53.250;7.456;2022-10-17T02:27:42;16.33;;;5.32;;
22916;SDS011;11624;53.250;7.456;2022-10-17T02:30:19;17.70;;;4.93;;
22916;SDS011;11624;53.250;7.456;2022-10-17T02:32:58;16.33;;;5.25;;
22916;SDS011;11624;53.250;7.456;2022-10-17T02:35:32;15.07;;;5.68;;
22916;SDS011;11624;53.250;7.456;2022-10-17T02:38:03;15.52;;;6.30;;
22916;SDS011;11624;53.250;7.456;2022-10-17T02:40:34;20.27;;;7.88;;
22916;SDS011;11624;53.250;7.456;2022-10-17T02:43:04;18.85;;;7.20;;
22916;SDS011;11624;53.250;7.456;2022-10-17T02:45:33;15.65;;;6.40;;
22916;SDS011;11624;53.250;7.456;2022-10-17T02:48:06;21.55;;;6.18;;
22916;SDS011;11624;53.250;7.456;2022-10-17T02:50:41;21.05;;;6.25;;
22916;SDS011;11624;53.250;7.456;2022-10-17T02:53:16;17.60;;;6.03;;
22916;SDS011;11624;53.250;7.456;2022-10-17T02:55:52;17.45;;;5.50;;
22916;SDS011;11624;53.250;7.456;2022-10-17T02:58:26;15.75;;;5.57;;
22916;SDS011;11624;53.250;7.456;2022-10-17T03:01:00;17.50;;;5.80;;
22916;SDS011;11624;53.250;7.456;2022-10-17T03:03:30;18.50;;;5.70;;
22916;SDS011;11624;53.250;7.456;2022-10-17T03:06:00;17.45;;;5.95;;
22916;SDS011;11624;53.250;7.456;2022-10-17T03:08:28;15.75;;;5.40;;
22916;SDS011;11624;53.250;7.456;2022-10-17T03:10:56;14.95;;;5.72;;
22916;SDS011;11624;53.250;7.456;2022-10-17T03:13:26;14.68;;;5.78;;
22916;SDS011;11624;53.250;7.456;2022-10-17T03:15:54;15.10;;;5.68;;
22916;SDS011;11624;53.250;7.456;2022-10-17T03:18:23;15.10;;;5.90;;
22916;SDS011;11624;53.250;7.456;2022-10-17T03:20:57;15.23;;;5.68;;
22916;SDS011;11624;53.250;7.456;2022-10-17T03:23:25;13.85;;;5.90;;
22916;SDS011;11624;53.250;7.456;2022-10-17T03:25:54;18.05;;;6.00;;
22916;SDS011;11624;53.250;7.456;2022-10-17T03:28:22;13.82;;;6.00;;
22916;SDS011;11624;53.250;7.456;2022-10-17T03:30:50;14.35;;;6.00;;
22916;SDS011;11624;53.250;7.456;2022-10-17T03:33:18;16.15;;;6.10;;
22916;SDS011;11624;53.250;7.456;2022-10-17T03:35:46;14.05;;;6.00;;
22916;SDS011;11624;53.250;7.456;2022-10-17T03:38:21;13.27;;;5.93;;
22916;SDS011;11624;53.250;7.456;2022-10-17T03:40:53;18.48;;;6.25;;
22916;SDS011;11624;53.250;7.456;2022-10-17T03:43:22;15.27;;;6.25;;
22916;SDS011;11624;53.250;7.456;2022-10-17T03:45:50;16.80;;;6.30;;
22916;SDS011;11624;53.250;7.456;2022-10-17T03:48:18;14.48;;;6.32;;
22916;SDS011;11624;53.250;7.456;2022-10-17T03:50:46;16.80;;;6.47;;
22916;SDS011;11624;53.250;7.456;2022-10-17T03:53:14;12.38;;;5.78;;
22916;SDS011;11624;53.250;7.456;2022-10-17T03:55:44;17.02;;;6.70;;
22916;SDS011;11624;53.250;7.456;2022-10-17T03:58:12;14.07;;;6.18;;
22916;SDS011;11624;53.250;7.456;2022-10-17T04:00:40;17.73;;;6.80;;
22916;SDS011;11624;53.250;7.456;2022-10-17T04:03:08;16.40;;;6.63;;
22916;SDS011;11624;53.250;7.456;2022-10-17T04:05:42;16.77;;;6.78;;
22916;SDS011;11624;53.250;7.456;2022-10-17T04:08:10;16.25;;;6.78;;
22916;SDS011;11624;53.250;7.456;2022-10-17T04:11:16;14.52;;;6.57;;
22916;SDS011;11624;53.250;7.456;2022-10-17T04:13:46;15.38;;;6.53;;
22916;SDS011;11624;53.250;7.456;2022-10-17T04:16:19;20.48;;;6.63;;
22916;SDS011;11624;53.250;7.456;2022-10-17T04:18:55;15.45;;;7.47;;
22916;SDS011;11624;53.250;7.456;2022-10-17T04:21:29;18.00;;;6.85;;
22916;SDS011;11624;53.250;7.456;2022-10-17T04:24:02;14.23;;;6.80;;
22916;SDS011;11624;53.250;7.456;2022-10-17T04:26:50;16.10;;;6.75;;
22916;SDS011;11624;53.250;7.456;2022-10-17T04:29:23;15.93;;;7.03;;
22916;SDS011;11624;53.250;7.456;2022-10-17T04:31:59;15.60;;;7.03;;
22916;SDS011;11624;53.250;7.456;2022-10-17T04:34:37;16.00;;;6.75;;
22916;SDS011;11624;53.250;7.456;2022-10-17T04:37:05;18.15;;;8.07;;
22916;SDS011;11624;53.250;7.456;2022-10-17T04:39:34;21.80;;;7.72;;
22916;SDS011;11624;53.250;7.456;2022-10-17T04:42:04;20.85;;;7.72;;
22916;SDS011;11624;53.250;7.456;2022-10-17T04:44:32;17.48;;;8.30;;
22916;SDS011;11624;53.250;7.456;2022-10-17T04:47:01;17.80;;;8.30;;
22916;SDS011;11624;53.250;7.456;2022-10-17T04:49:29;15.88;;;8.02;;
22916;SDS011;11624;53.250;7.456;2022-10-17T04:52:05;17.92;;;8.35;;
22916;SDS011;11624;53.250;7.456;2022-10-17T04:54:40;16.83;;;8.35;;
22916;SDS011;11624;53.250;7.456;2022-10-17T04:57:12;17.60;;;9.18;;
22916;SDS011;11624;53.250;7.456;2022-10-17T04:59:48;21.85;;;9.02;;
22916;SDS011;11624;53.250;7.456;2022-10-17T05:02:44;16.17;;;9.00;;
22916;SDS011;11624;53.250;7.456;2022-10-17T05:05:13;16.75;;;8.82;;
22916;SDS011;11624;53.250;7.456;2022-10-17T05:07:43;17.70;;;9.02;;
22916;SDS011;11624;53.250;7.456;2022-10-17T05:10:16;17.10;;;9.02;;
22916;SDS011;11624;53.250;7.456;2022-10-17T05:12:48;17.75;;;8.88;;
22916;SDS011;11624;53.250;7.456;2022-10-17T05:15:20;17.60;;;9.43;;
22916;SDS011;11624;53.250;7.456;2022-10-17T05:17:53;16.67;;;9.35;;
22916;SDS011;11624;53.250;7.456;2022-10-17T05:20:23;16.55;;;9.00;;
22916;SDS011;11624;53.250;7.456;2022-10-17T05:22:52;19.02;;;9.98;;
22916;SDS011;11624;53.250;7.456;2022-10-17T05:25:20;18.27;;;9.48;;
22916;SDS011;11624;53.250;7.456;2022-10-17T05:27:51;24.63;;;9.95;;
22916;SDS011;11624;53.250;7.456;2022-10-17T05:30:19;21.73;;;9.77;;
22916;SDS011;11624;53.250;7.456;2022-10-17T05:32:52;18.50;;;10.35;;
22916;SDS011;11624;53.250;7.456;2022-10-17T05:35:21;19.02;;;10.00;;
22916;SDS011;11624;53.250;7.456;2022-10-17T05:37:50;18.33;;;10.10;;
22916;SDS011;11624;53.250;7.456;2022-10-17T05:40:19;25.75;;;11.20;;
22916;SDS011;11624;53.250;7.456;2022-10-17T05:42:51;18.40;;;9.90;;
22916;SDS011;11624;53.250;7.456;2022-10-17T05:45:20;20.15;;;10.45;;
22916;SDS011;11624;53.250;7.456;2022-10-17T05:47:49;17.65;;;10.27;;
22916;SDS011;11624;53.250;7.456;2022-10-17T05:50:17;23.17;;;11.02;;
22916;SDS011;11624;53.250;7.456;2022-10-17T05:53:01;18.35;;;10.80;;
22916;SDS011;11624;53.250;7.456;2022-10-17T05:55:33;19.27;;;10.50;;
22916;SDS011;11624;53.250;7.456;2022-10-17T05:58:03;19.40;;;10.73;;
22916;SDS011;11624;53.250;7.456;2022-10-17T06:00:35;19.73;;;10.68;;
22916;SDS011;11624;53.250;7.456;2022-10-17T06:03:03;18.40;;;10.82;;
22916;SDS011;11624;53.250;7.456;2022-10-17T06:05:33;19.48;;;10.55;;
22916;SDS011;11624;53.250;7.456;2022-10-17T06:08:02;17.88;;;10.00;;
22916;SDS011;11624;53.250;7.456;2022-10-17T06:10:33;19.80;;;10.25;;
22916;SDS011;11624;53.250;7.456;2022-10-17T06:13:03;19.73;;;10.02;;
22916;SDS011;11624;53.250;7.456;2022-10-17T06:15:31;21.55;;;10.88;;
22916;SDS011;11624;53.250;7.456;2022-10-17T06:18:04;17.45;;;10.63;;
22916;SDS011;11624;53.250;7.456;2022-10-17T06:20:32;18.13;;;10.40;;
22916;SDS011;11624;53.250;7.456;2022-10-17T06:23:00;22.15;;;10.70;;
22916;SDS011;11624;53.250;7.456;2022-10-17T06:25:43;19.58;;;10.45;;
22916;SDS011;11624;53.250;7.456;2022-10-17T06:28:12;21.85;;;10.52;;
22916;SDS011;11624;53.250;7.456;2022-10-17T06:30:40;20.00;;;10.35;;
22916;SDS011;11624;53.250;7.456;2022-10-17T06:33:10;18.88;;;10.52;;
22916;SDS011;11624;53.250;7.456;2022-10-17T06:35:38;19.20;;;10.82;;
22916;SDS011;11624;53.250;7.456;2022-10-17T06:38:06;20.63;;;10.70;;
22916;SDS011;11624;53.250;7.456;2022-10-17T06:40:35;22.05;;;10.18;;
22916;SDS011;11624;53.250;7.456;2022-10-17T06:43:03;17.67;;;10.27;;
22916;SDS011;11624;53.250;7.456;2022-10-17T06:46:08;16.92;;;9.90;;
22916;SDS011;11624;53.250;7.456;2022-10-17T06:48:39;19.73;;;10.20;;
22916;SDS011;11624;53.250;7.456;2022-10-17T06:51:27;17.80;;;10.13;;
22916;SDS011;11624;53.250;7.456;2022-10-17T06:53:57;23.15;;;10.50;;
22916;SDS011;11624;53.250;7.456;2022-10-17T06:56:45;21.90;;;10.40;;
22916;SDS011;11624;53.250;7.456;2022-10-17T06:59:34;17.50;;;10.13;;
22916;SDS011;11624;53.250;7.456;2022-10-17T07:02:10;17.77;;;10.15;;
22916;SDS011;11624;53.250;7.456;2022-10-17T07:04:38;27.90;;;9.27;;
22916;SDS011;11624;53.250;7.456;2022-10-17T07:07:06;20.30;;;9.48;;
22916;SDS011;11624;53.250;7.456;2022-10-17T07:09:35;18.30;;;8.85;;
22916;SDS011;11624;53.250;7.456;2022-10-17T07:12:03;16.85;;;9.35;;
22916;SDS011;11624;53.250;7.456;2022-10-17T07:14:33;21.75;;;9.98;;
22916;SDS011;11624;53.250;7.456;2022-10-17T07:17:02;17.27;;;9.40;;
22916;SDS011;11624;53.250;7.456;2022-10-17T07:19:32;18.42;;;10.32;;
22916;SDS011;11624;53.250;7.456;2022-10-17T07:22:02;18.38;;;9.50;;
22916;SDS011;11624;53.250;7.456;2022-10-17T07:24:31;17.95;;;9.20;;
22916;SDS011;11624;53.250;7.456;2022-10-17T07:27:12;18.52;;;9.00;;
22916;SDS011;11624;53.250;7.456;2022-10-17T07:29:40;18.50;;;9.63;;
22916;SDS011;11624;53.250;7.456;2022-10-17T07:32:15;16.15;;;8.70;;
22916;SDS011;11624;53.250;7.456;2022-10-17T07:34:44;17.98;;;9.02;;
22916;SDS011;11624;53.250;7.456;2022-10-17T07:37:13;16.83;;;8.85;;
22916;SDS011;11624;53.250;7.456;2022-10-17T07:39:47;19.77;;;8.93;;
22916;SDS011;11624;53.250;7.456;2022-10-17T07:42:15;16.52;;;9.23;;
22916;SDS011;11624;53.250;7.456;2022-10-17T07:44:44;18.90;;;8.68;;
22916;SDS011;11624;53.250;7.456;2022-10-17T07:47:13;15.98;;;8.80;;
22916;SDS011;11624;53.250;7.456;2022-10-17T07:49:41;18.73;;;9.20;;
22916;SDS011;11624;53.250;7.456;2022-10-17T07:52:12;20.73;;;9.07;;
22916;SDS011;11624;53.250;7.456;2022-10-17T07:54:41;18.55;;;8.30;;
22916;SDS011;11624;53.250;7.456;2022-10-17T07:57:10;16.58;;;8.45;;
22916;SDS011;11624;53.250;7.456;2022-10-17T07:59:38;19.58;;;8.20;;
22916;SDS011;11624;53.250;7.456;2022-10-17T08:02:07;16.77;;;8.05;;
22916;SDS011;11624;53.250;7.456;2022-10-17T08:04:48;17.25;;;8.32;;
22916;SDS011;11624;53.250;7.456;2022-10-17T08:07:17;18.63;;;8.68;;
22916;SDS011;11624;53.250;7.456;2022-10-17T08:09:53;17.88;;;7.97;;
22916;SDS011;11624;53.250;7.456;2022-10-17T08:12:22;17.45;;;8.15;;
22916;SDS011;11624;53.250;7.456;2022-10-17T08:14:51;19.88;;;8.63;;
22916;SDS011;11624;53.250;7.456;2022-10-17T08:17:19;19.02;;;8.30;;
22916;SDS011;11624;53.250;7.456;2022-10-17T08:19:48;16.80;;;8.20;;
22916;SDS011;11624;53.250;7.456;2022-10-17T08:22:17;18.50;;;8.35;;
22916;SDS011;11624;53.250;7.456;2022-10-17T08:24:45;15.73;;;8.00;;
22916;SDS011;11624;53.250;7.456;2022-10-17T08:27:13;19.67;;;8.18;;
22916;SDS011;11624;53.250;7.456;2022-10-17T08:29:46;17.88;;;8.05;;
22916;SDS011;11624;53.250;7.456;2022-10-17T08:32:18;17.10;;;8.57;;
22916;SDS011;11624;53.250;7.456;2022-10-17T08:34:46;18.05;;;8.48;;
22916;SDS011;11624;53.250;7.456;2022-10-17T08:37:14;17.15;;;7.97;;
22916;SDS011;11624;53.250;7.456;2022-10-17T08:39:44;17.65;;;7.60;;
22916;SDS011;11624;53.250;7.456;2022-10-17T08:42:19;16.55;;;7.95;;
22916;SDS011;11624;53.250;7.456;2022-10-17T08:44:59;14.05;;;7.15;;
22916;SDS011;11624;53.250;7.456;2022-10-17T08:47:35;17.70;;;7.70;;
22916;SDS011;11624;53.250;7.456;2022-10-17T08:50:06;16.15;;;7.45;;
22916;SDS011;11624;53.250;7.456;2022-10-17T08:52:38;17.52;;;7.82;;
22916;SDS011;11624;53.250;7.456;2022-10-17T08:55:13;14.50;;;7.15;;
22916;SDS011;11624;53.250;7.456;2022-10-17T08:57:47;16.35;;;7.72;;
22916;SDS011;11624;53.250;7.456;2022-10-17T09:00:16;18.45;;;7.30;;
22916;SDS011;11624;53.250;7.456;2022-10-17T09:02:49;18.33;;;7.13;;
22916;SDS011;11624;53.250;7.456;2022-10-17T09:05:34;14.07;;;7.00;;
22916;SDS011;11624;53.250;7.456;2022-10-17T09:08:11;16.50;;;7.03;;
22916;SDS011;11624;53.250;7.456;2022-10-17T09:10:53;15.23;;;6.53;;
22916;SDS011;11624;53.250;7.456;2022-10-17T09:13:34;16.92;;;7.10;;
22916;SDS011;11624;53.250;7.456;2022-10-17T09:16:14;13.90;;;7.25;;
22916;SDS011;11624;53.250;7.456;2022-10-17T09:19:00;16.92;;;7.30;;
22916;SDS011;11624;53.250;7.456;2022-10-17T09:21:36;16.25;;;7.35;;
22916;SDS011;11624;53.250;7.456;2022-10-17T09:24:12;15.13;;;6.63;;
22916;SDS011;11624;53.250;7.456;2022-10-17T09:26:45;18.77;;;6.90;;
22916;SDS011;11624;53.250;7.456;2022-10-17T09:29:14;14.50;;;7.00;;
22916;SDS011;11624;53.250;7.456;2022-10-17T09:31:48;17.52;;;6.97;;
22916;SDS011;11624;53.250;7.456;2022-10-17T09:34:27;17.25;;;7.00;;
22916;SDS011;11624;53.250;7.456;2022-10-17T09:36:58;19.83;;;7.35;;
22916;SDS011;11624;53.250;7.456;2022-10-17T09:39:27;15.02;;;6.72;;
22916;SDS011;11624;53.250;7.456;2022-10-17T09:41:59;15.05;;;6.95;;
22916;SDS011;11624;53.250;7.456;2022-10-17T09:44:29;15.40;;;7.20;;
22916;SDS011;11624;53.250;7.456;2022-10-17T09:47:01;14.98;;;7.43;;
22916;SDS011;11624;53.250;7.456;2022-10-17T09:49:41;16.65;;;7.30;;
22916;SDS011;11624;53.250;7.456;2022-10-17T09:52:11;15.93;;;7.18;;
22916;SDS011;11624;53.250;7.456;2022-10-17T09:54:43;15.23;;;7.15;;
22916;SDS011;11624;53.250;7.456;2022-10-17T09:57:15;13.68;;;7.05;;
22916;SDS011;11624;53.250;7.456;2022-10-17T09:59:45;22.33;;;7.65;;
22916;SDS011;11624;53.250;7.456;2022-10-17T10:02:18;15.48;;;7.43;;
22916;SDS011;11624;53.250;7.456;2022-10-17T10:04:51;18.73;;;7.43;;
22916;SDS011;11624;53.250;7.456;2022-10-17T10:07:36;15.43;;;7.03;;
22916;SDS011;11624;53.250;7.456;2022-10-17T10:10:07;14.82;;;7.15;;
22916;SDS011;11624;53.250;7.456;2022-10-17T10:13:05;20.20;;;7.40;;
22916;SDS011;11624;53.250;7.456;2022-10-17T10:15:43;16.67;;;7.35;;
22916;SDS011;11624;53.250;7.456;2022-10-17T10:18:27;15.30;;;7.38;;
22916;SDS011;11624;53.250;7.456;2022-10-17T10:21:05;18.50;;;7.40;;
22916;SDS011;11624;53.250;7.456;2022-10-17T10:23:36;20.42;;;7.82;;
22916;SDS011;11624;53.250;7.456;2022-10-17T10:26:16;15.50;;;7.32;;
22916;SDS011;11624;53.250;7.456;2022-10-17T10:28:56;16.40;;;7.47;;
22916;SDS011;11624;53.250;7.456;2022-10-17T10:31:36;17.00;;;7.63;;
22916;SDS011;11624;53.250;7.456;2022-10-17T10:34:14;17.30;;;8.30;;
22916;SDS011;11624;53.250;7.456;2022-10-17T10:36:50;16.92;;;7.75;;
22916;SDS011;11624;53.250;7.456;2022-10-17T10:39:39;17.52;;;8.07;;
22916;SDS011;11624;53.250;7.456;2022-10-17T10:42:17;16.63;;;7.60;;
22916;SDS011;11624;53.250;7.456;2022-10-17T10:44:49;15.90;;;7.50;;
22916;SDS011;11624;53.250;7.456;2022-10-17T10:47:20;16.27;;;7.90;;
22916;SDS011;11624;53.250;7.456;2022-10-17T10:49:53;15.95;;;8.05;;
22916;SDS011;11624;53.250;7.456;2022-10-17T10:52:37;15.25;;;7.72;;
22916;SDS011;11624;53.250;7.456;2022-10-17T10:55:17;18.83;;;7.90;;
22916;SDS011;11624;53.250;7.456;2022-10-17T10:57:51;21.08;;;8.07;;
22916;SDS011;11624;53.250;7.456;2022-10-17T11:00:25;18.77;;;8.57;;
22916;SDS011;11624;53.250;7.456;2022-10-17T11:02:58;19.58;;;8.65;;
22916;SDS011;11624;53.250;7.456;2022-10-17T11:05:34;17.45;;;8.95;;
22916;SDS011;11624;53.250;7.456;2022-10-17T11:08:10;18.48;;;8.77;;
22916;SDS011;11624;53.250;7.456;2022-10-17T11:10:51;19.55;;;9.25;;
22916;SDS011;11624;53.250;7.456;2022-10-17T11:13:27;18.75;;;9.27;;
22916;SDS011;11624;53.250;7.456;2022-10-17T11:16:14;15.85;;;8.32;;
22916;SDS011;11624;53.250;7.456;2022-10-17T11:18:49;19.58;;;9.15;;
22916;SDS011;11624;53.250;7.456;2022-10-17T11:21:22;17.88;;;8.80;;
22916;SDS011;11624;53.250;7.456;2022-10-17T11:24:00;24.95;;;9.93;;
22916;SDS011;11624;53.250;7.456;2022-10-17T11:26:40;17.40;;;8.98;;
22916;SDS011;11624;53.250;7.456;2022-10-17T11:29:11;17.55;;;9.48;;
22916;SDS011;11624;53.250;7.456;2022-10-17T11:31:42;20.33;;;9.35;;
22916;SDS011;11624;53.250;7.456;2022-10-17T11:34:18;19.50;;;8.65;;
22916;SDS011;11624;53.250;7.456;2022-10-17T11:36:51;21.45;;;9.90;;
22916;SDS011;11624;53.250;7.456;2022-10-17T11:39:26;18.42;;;9.60;;
22916;SDS011;11624;53.250;7.456;2022-10-17T11:41:57;18.40;;;9.90;;
22916;SDS011;11624;53.250;7.456;2022-10-17T11:44:33;28.70;;;14.18;;
22916;SDS011;11624;53.250;7.456;2022-10-17T11:47:05;22.60;;;11.65;;
22916;SDS011;11624;53.250;7.456;2022-10-17T11:49:40;23.10;;;12.05;;
22916;SDS011;11624;53.250;7.456;2022-10-17T11:52:20;19.85;;;10.50;;
22916;SDS011;11624;53.250;7.456;2022-10-17T11:55:16;19.00;;;10.65;;
22916;SDS011;11624;53.250;7.456;2022-10-17T11:57:50;20.92;;;11.00;;
22916;SDS011;11624;53.250;7.456;2022-10-17T12:00:26;18.60;;;10.55;;
22916;SDS011;11624;53.250;7.456;2022-10-17T12:03:17;19.88;;;10.68;;
22916;SDS011;11624;53.250;7.456;2022-10-17T12:05:54;22.98;;;12.10;;
22916;SDS011;11624;53.250;7.456;2022-10-17T12:08:28;21.05;;;12.15;;
22916;SDS011;11624;53.250;7.456;2022-10-17T12:11:00;20.17;;;11.07;;
22916;SDS011;11624;53.250;7.456;2022-10-17T12:13:48;24.20;;;12.35;;
22916;SDS011;11624;53.250;7.456;2022-10-17T12:16:37;26.02;;;12.35;;
22916;SDS011;11624;53.250;7.456;2022-10-17T12:22:17;22.58;;;12.50;;
22916;SDS011;11624;53.250;7.456;2022-10-17T12:24:57;22.17;;;12.55;;
22916;SDS011;11624;53.250;7.456;2022-10-17T12:27:37;24.58;;;12.63;;
22916;SDS011;11624;53.250;7.456;2022-10-17T12:30:18;22.67;;;12.55;;
22916;SDS011;11624;53.250;7.456;2022-10-17T12:35:49;21.77;;;12.23;;
22916;SDS011;11624;53.250;7.456;2022-10-17T12:38:19;22.15;;;12.20;;
22916;SDS011;11624;53.250;7.456;2022-10-17T12:40:53;20.90;;;11.23;;
22916;SDS011;11624;53.250;7.456;2022-10-17T12:43:34;21.25;;;11.30;;
22916;SDS011;11624;53.250;7.456;2022-10-17T12:46:43;20.98;;;10.98;;
22916;SDS011;11624;53.250;7.456;2022-10-17T12:52:25;22.77;;;11.23;;
22916;SDS011;11624;53.250;7.456;2022-10-17T12:55:15;19.50;;;10.60;;
22916;SDS011;11624;53.250;7.456;2022-10-17T12:57:52;19.63;;;10.50;;
22916;SDS011;11624;53.250;7.456;2022-10-17T13:00:26;21.23;;;10.65;;
22916;SDS011;11624;53.250;7.456;2022-10-17T13:03:04;18.42;;;9.15;;
22916;SDS011;11624;53.250;7.456;2022-10-17T13:05:37;18.63;;;9.85;;
22916;SDS011;11624;53.250;7.456;2022-10-17T13:08:14;18.27;;;9.60;;
22916;SDS011;11624;53.250;7.456;2022-10-17T13:10:44;16.83;;;8.90;;
22916;SDS011;11624;53.250;7.456;2022-10-17T13:13:19;16.75;;;8.15;;
22916;SDS011;11624;53.250;7.456;2022-10-17T13:15:49;16.17;;;8.60;;
22916;SDS011;11624;53.250;7.456;2022-10-17T13:18:20;18.00;;;8.82;;
22916;SDS011;11624;53.250;7.456;2022-10-17T13:20:54;16.73;;;8.38;;
22916;SDS011;11624;53.250;7.456;2022-10-17T13:23:29;15.82;;;8.23;;
22916;SDS011;11624;53.250;7.456;2022-10-17T13:26:03;17.40;;;8.40;;
22916;SDS011;11624;53.250;7.456;2022-10-17T13:28:33;15.68;;;8.07;;
22916;SDS011;11624;53.250;7.456;2022-10-17T13:31:05;14.77;;;7.95;;
22916;SDS011;11624;53.250;7.456;2022-10-17T13:33:34;15.48;;;7.85;;
22916;SDS011;11624;53.250;7.456;2022-10-17T13:36:05;19.13;;;8.32;;
22916;SDS011;11624;53.250;7.456;2022-10-17T13:38:36;16.30;;;8.57;;
22916;SDS011;11624;53.250;7.456;2022-10-17T13:41:09;16.48;;;8.13;;
22916;SDS011;11624;53.250;7.456;2022-10-17T13:44:00;15.85;;;8.52;;
22916;SDS011;11624;53.250;7.456;2022-10-17T13:46:30;17.50;;;8.80;;
22916;SDS011;11624;53.250;7.456;2022-10-17T13:49:09;16.90;;;8.82;;
22916;SDS011;11624;53.250;7.456;2022-10-17T13:51:41;20.23;;;10.45;;
22916;SDS011;11624;53.250;7.456;2022-10-17T13:57:15;21.75;;;12.25;;
22916;SDS011;11624;53.250;7.456;2022-10-17T13:59:47;17.17;;;9.50;;
22916;SDS011;11624;53.250;7.456;2022-10-17T14:02:18;17.38;;;9.02;;
22916;SDS011;11624;53.250;7.456;2022-10-17T14:04:58;17.33;;;8.40;;
22916;SDS011;11624;53.250;7.456;2022-10-17T14:07:45;16.60;;;8.35;;
22916;SDS011;11624;53.250;7.456;2022-10-17T14:10:38;17.58;;;8.55;;
22916;SDS011;11624;53.250;7.456;2022-10-17T14:13:13;17.15;;;8.10;;
22916;SDS011;11624;53.250;7.456;2022-10-17T14:15:47;18.83;;;8.10;;
22916;SDS011;11624;53.250;7.456;2022-10-17T14:18:17;15.02;;;7.70;;
22916;SDS011;11624;53.250;7.456;2022-10-17T14:20:48;18.33;;;8.35;;
22916;SDS011;11624;53.250;7.456;2022-10-17T14:23:38;18.25;;;8.40;;
22916;SDS011;11624;53.250;7.456;2022-10-17T14:26:10;17.77;;;8.38;;
22916;SDS011;11624;53.250;7.456;2022-10-17T14:28:41;17.42;;;8.18;;
22916;SDS011;11624;53.250;7.456;2022-10-17T14:31:12;18.98;;;8.00;;
22916;SDS011;11624;53.250;7.456;2022-10-17T14:33:56;17.60;;;6.50;;
22916;SDS011;11624;53.250;7.456;2022-10-17T14:36:30;16.13;;;6.72;;
22916;SDS011;11624;53.250;7.456;2022-10-17T14:39:00;14.40;;;6.03;;
22916;SDS011;11624;53.250;7.456;2022-10-17T14:41:37;14.38;;;4.82;;
22916;SDS011;11624;53.250;7.456;2022-10-17T14:44:14;11.50;;;4.57;;
22916;SDS011;11624;53.250;7.456;2022-10-17T14:46:48;13.38;;;4.57;;
22916;SDS011;11624;53.250;7.456;2022-10-17T14:49:24;11.23;;;4.40;;
22916;SDS011;11624;53.250;7.456;2022-10-17T14:52:09;15.90;;;4.45;;
22916;SDS011;11624;53.250;7.456;2022-10-17T14:54:52;10.70;;;4.10;;
22916;SDS011;11624;53.250;7.456;2022-10-17T14:57:23;12.00;;;3.95;;
22916;SDS011;11624;53.250;7.456;2022-10-17T14:59:54;14.30;;;4.40;;
22916;SDS011;11624;53.250;7.456;2022-10-17T15:02:23;12.95;;;4.60;;
22916;SDS011;11624;53.250;7.456;2022-10-17T15:04:51;14.07;;;4.18;;
22916;SDS011;11624;53.250;7.456;2022-10-17T15:07:20;12.55;;;4.47;;
22916;SDS011;11624;53.250;7.456;2022-10-17T15:09:49;10.68;;;3.90;;
22916;SDS011;11624;53.250;7.456;2022-10-17T15:12:19;10.65;;;3.97;;
22916;SDS011;11624;53.250;7.456;2022-10-17T15:14:52;12.80;;;4.45;;
22916;SDS011;11624;53.250;7.456;2022-10-17T15:17:21;10.95;;;4.00;;
22916;SDS011;11624;53.250;7.456;2022-10-17T15:19:51;10.35;;;3.60;;
22916;SDS011;11624;53.250;7.456;2022-10-17T15:22:19;10.98;;;3.42;;
22916;SDS011;11624;53.250;7.456;2022-10-17T15:24:48;12.70;;;3.53;;
22916;SDS011;11624;53.250;7.456;2022-10-17T15:27:17;9.73;;;2.72;;
22916;SDS011;11624;53.250;7.456;2022-10-17T15:29:46;8.43;;;2.85;;
22916;SDS011;11624;53.250;7.456;2022-10-17T15:32:16;10.73;;;4.10;;